sensor_id;sensor_type;location;lat;lon;timestamp;pressure;altitude;pressure_sealevel;temperature;humidity
40574;BME280;26283;49.020;8.644;2023-06-14T00:02:01;98759.88;;;24.74;42.29
40574;BME280;26283;49.020;8.644;2023-06-14T00:04:26;98768.97;;;24.74;42.29
40574;BME280;26283;49.020;8.644;2023-06-14T00:06:52;98759.09;;;24.73;42.28
40574;BME280;26283;49.020;8.644;2023-06-14T00:09:18;98755.50;;;24.73;42.31
40574;BME280;26283;49.020;8.644;2023-06-14T00:11:44;98763.28;;;24.71;42.36
40574;BME280;26283;49.020;8.644;2023-06-14T00:14:09;98765.56;;;24.69;42.32
40574;BME280;26283;49.020;8.644;2023-06-14T00:16:35;98762.03;;;24.68;42.35
40574;BME280;26283;49.020;8.644;2023-06-14T00:19:03;98766.72;;;24.68;42.31
40574;BME280;26283;49.020;8.644;2023-06-14T00:21:30;98765.09;;;24.67;42.45
40574;BME280;26283;49.020;8.644;2023-06-14T00:23:57;98765.41;;;24.65;42.36
40574;BME280;26283;49.020;8.644;2023-06-14T00:26:22;98765.75;;;24.64;42.40
40574;BME280;26283;49.020;8.644;2023-06-14T00:28:47;98760.22;;;24.64;42.30
40574;BME280;26283;49.020;8.644;2023-06-14T00:31:13;98756.16;;;24.61;42.24
40574;BME280;26283;49.020;8.644;2023-06-14T00:33:38;98754.56;;;24.60;42.28
40574;BME280;26283;49.020;8.644;2023-06-14T00:36:04;98753.72;;;24.59;42.21
40574;BME280;26283;49.020;8.644;2023-06-14T00:38:29;98763.94;;;24.59;42.14
40574;BME280;26283;49.020;8.644;2023-06-14T00:40:54;98757.94;;;24.57;42.13
40574;BME280;26283;49.020;8.644;2023-06-14T00:43:20;98760.69;;;24.57;42.08
40574;BME280;26283;49.020;8.644;2023-06-14T00:45:45;98758.25;;;24.55;42.05
40574;BME280;26283;49.020;8.644;2023-06-14T00:48:11;98756.63;;;24.54;42.04
40574;BME280;26283;49.020;8.644;2023-06-14T00:50:36;98749.50;;;24.53;42.00
40574;BME280;26283;49.020;8.644;2023-06-14T00:53:03;98754.22;;;24.53;41.92
40574;BME280;26283;49.020;8.644;2023-06-14T00:55:29;98757.28;;;24.51;41.96
40574;BME280;26283;49.020;8.644;2023-06-14T00:57:55;98759.22;;;24.51;41.94
40574;BME280;26283;49.020;8.644;2023-06-14T01:00:21;98749.34;;;24.50;41.90
40574;BME280;26283;49.020;8.644;2023-06-14T01:02:47;98757.94;;;24.48;41.85
40574;BME280;26283;49.020;8.644;2023-06-14T01:05:13;98750.78;;;24.47;41.89
40574;BME280;26283;49.020;8.644;2023-06-14T01:10:52;98757.78;;;24.45;42.01
40574;BME280;26283;49.020;8.644;2023-06-14T01:13:26;98754.53;;;24.43;42.05
40574;BME280;26283;49.020;8.644;2023-06-14T01:15:54;98750.16;;;24.42;41.86
40574;BME280;26283;49.020;8.644;2023-06-14T01:18:22;98760.38;;;24.41;41.82
40574;BME280;26283;49.020;8.644;2023-06-14T01:20:49;98760.69;;;24.40;41.78
40574;BME280;26283;49.020;8.644;2023-06-14T01:23:19;98766.50;;;24.38;41.69
40574;BME280;26283;49.020;8.644;2023-06-14T01:25:46;98759.37;;;24.37;41.91
40574;BME280;26283;49.020;8.644;2023-06-14T01:28:12;98760.50;;;24.36;41.76
40574;BME280;26283;49.020;8.644;2023-06-14T01:30:40;98764.41;;;24.35;41.83
40574;BME280;26283;49.020;8.644;2023-06-14T01:33:13;98761.16;;;24.33;41.93
40574;BME280;26283;49.020;8.644;2023-06-14T01:35:44;98771.34;;;24.33;42.00
40574;BME280;26283;49.020;8.644;2023-06-14T01:38:10;98769.72;;;24.32;41.96
40574;BME280;26283;49.020;8.644;2023-06-14T01:40:37;98766.16;;;24.31;41.85
40574;BME280;26283;49.020;8.644;2023-06-14T01:43:05;98770.38;;;24.29;41.94
40574;BME280;26283;49.020;8.644;2023-06-14T01:45:31;98771.50;;;24.27;41.96
40574;BME280;26283;49.020;8.644;2023-06-14T01:47:57;98763.56;;;24.26;41.94
40574;BME280;26283;49.020;8.644;2023-06-14T01:50:22;98765.50;;;24.25;42.01
40574;BME280;26283;49.020;8.644;2023-06-14T01:52:48;98770.19;;;24.25;42.00
40574;BME280;26283;49.020;8.644;2023-06-14T01:55:13;98765.84;;;24.24;42.05
40574;BME280;26283;49.020;8.644;2023-06-14T01:57:38;98767.25;;;24.21;42.06
40574;BME280;26283;49.020;8.644;2023-06-14T02:00:05;98766.44;;;24.21;42.14
40574;BME280;26283;49.020;8.644;2023-06-14T02:02:35;98769.53;;;24.19;42.15
40574;BME280;26283;49.020;8.644;2023-06-14T02:05:01;98772.59;;;24.18;42.06
40574;BME280;26283;49.020;8.644;2023-06-14T02:07:27;98763.53;;;24.17;42.16
40574;BME280;26283;49.020;8.644;2023-06-14T02:09:52;98767.41;;;24.16;42.23
40574;BME280;26283;49.020;8.644;2023-06-14T02:12:17;98773.22;;;24.15;42.17
40574;BME280;26283;49.020;8.644;2023-06-14T02:14:43;98769.66;;;24.14;42.18
40574;BME280;26283;49.020;8.644;2023-06-14T02:17:09;98775.47;;;24.13;42.14
40574;BME280;26283;49.020;8.644;2023-06-14T02:19:35;98776.63;;;24.12;42.18
40574;BME280;26283;49.020;8.644;2023-06-14T02:22:00;98775.00;;;24.11;42.18
40574;BME280;26283;49.020;8.644;2023-06-14T02:24:26;98774.50;;;24.09;42.18
40574;BME280;26283;49.020;8.644;2023-06-14T02:26:51;98764.63;;;24.08;42.16
40574;BME280;26283;49.020;8.644;2023-06-14T02:29:16;98774.00;;;24.07;42.22
40574;BME280;26283;49.020;8.644;2023-06-14T02:31:42;98772.38;;;24.06;42.24
40574;BME280;26283;49.020;8.644;2023-06-14T02:34:07;98773.50;;;24.05;42.27
40574;BME280;26283;49.020;8.644;2023-06-14T02:36:35;98770.28;;;24.03;42.25
40574;BME280;26283;49.020;8.644;2023-06-14T02:39:07;98777.72;;;24.02;42.29
40574;BME280;26283;49.020;8.644;2023-06-14T02:41:34;98787.94;;;24.02;42.24
40574;BME280;26283;49.020;8.644;2023-06-14T02:44:00;98779.19;;;24.00;42.22
40574;BME280;26283;49.020;8.644;2023-06-14T02:46:25;98785.00;;;23.98;42.23
40574;BME280;26283;49.020;8.644;2023-06-14T02:48:50;98785.00;;;23.98;42.20
40574;BME280;26283;49.020;8.644;2023-06-14T02:51:16;98782.06;;;23.95;42.17
40574;BME280;26283;49.020;8.644;2023-06-14T02:53:41;98782.88;;;23.95;42.19
40574;BME280;26283;49.020;8.644;2023-06-14T02:56:06;98782.06;;;23.95;42.24
40574;BME280;26283;49.020;8.644;2023-06-14T02:58:32;98781.56;;;23.92;42.26
40574;BME280;26283;49.020;8.644;2023-06-14T03:00:58;98781.87;;;23.91;42.29
40574;BME280;26283;49.020;8.644;2023-06-14T03:03:29;98780.25;;;23.90;42.35
40574;BME280;26283;49.020;8.644;2023-06-14T03:05:54;98773.13;;;23.89;42.35
40574;BME280;26283;49.020;8.644;2023-06-14T03:08:20;98787.22;;;23.87;42.43
40574;BME280;26283;49.020;8.644;2023-06-14T03:10:46;98777.31;;;23.86;42.39
40574;BME280;26283;49.020;8.644;2023-06-14T03:13:13;98778.47;;;23.85;42.41
40574;BME280;26283;49.020;8.644;2023-06-14T03:15:38;98779.59;;;23.84;42.49
40574;BME280;26283;49.020;8.644;2023-06-14T03:18:07;98779.91;;;23.83;42.50
40574;BME280;26283;49.020;8.644;2023-06-14T03:20:33;98784.94;;;23.81;42.53
40574;BME280;26283;49.020;8.644;2023-06-14T03:23:02;98777.50;;;23.81;42.46
40574;BME280;26283;49.020;8.644;2023-06-14T03:25:28;98778.94;;;23.79;42.64
40574;BME280;26283;49.020;8.644;2023-06-14T03:27:56;98782.00;;;23.77;42.55
40574;BME280;26283;49.020;8.644;2023-06-14T03:30:21;98786.69;;;23.77;42.52
40574;BME280;26283;49.020;8.644;2023-06-14T03:32:47;98778.75;;;23.75;42.63
40574;BME280;26283;49.020;8.644;2023-06-14T03:35:12;98789.25;;;23.73;42.58
40574;BME280;26283;49.020;8.644;2023-06-14T03:37:45;98800.25;;;23.73;42.55
40574;BME280;26283;49.020;8.644;2023-06-14T03:40:12;98804.47;;;23.71;42.59
40574;BME280;26283;49.020;8.644;2023-06-14T03:42:38;98799.25;;;23.69;42.67
40574;BME280;26283;49.020;8.644;2023-06-14T03:45:04;98797.31;;;23.70;42.66
40574;BME280;26283;49.020;8.644;2023-06-14T03:47:29;98808.16;;;23.66;42.66
40574;BME280;26283;49.020;8.644;2023-06-14T03:49:55;98809.78;;;23.67;42.66
40574;BME280;26283;49.020;8.644;2023-06-14T03:52:21;98803.78;;;23.65;42.67
40574;BME280;26283;49.020;8.644;2023-06-14T03:54:47;98812.66;;;23.62;42.67
40574;BME280;26283;49.020;8.644;2023-06-14T03:57:13;98823.66;;;23.62;42.68
40574;BME280;26283;49.020;8.644;2023-06-14T03:59:38;98834.16;;;23.60;42.74
40574;BME280;26283;49.020;8.644;2023-06-14T04:02:03;98831.41;;;23.60;42.71
40574;BME280;26283;49.020;8.644;2023-06-14T04:04:29;98837.56;;;23.57;42.70
40574;BME280;26283;49.020;8.644;2023-06-14T04:06:55;98843.06;;;23.57;42.76
40574;BME280;26283;49.020;8.644;2023-06-14T04:09:23;98839.81;;;23.55;42.80
40574;BME280;26283;49.020;8.644;2023-06-14T04:11:50;98838.19;;;23.54;42.89
40574;BME280;26283;49.020;8.644;2023-06-14T04:14:18;98836.84;;;23.51;42.84
40574;BME280;26283;49.020;8.644;2023-06-14T04:16:44;98845.94;;;23.52;42.92
40574;BME280;26283;49.020;8.644;2023-06-14T04:19:09;98845.41;;;23.50;42.83
40574;BME280;26283;49.020;8.644;2023-06-14T04:21:34;98852.03;;;23.49;42.97
40574;BME280;26283;49.020;8.644;2023-06-14T04:24:00;98851.53;;;23.47;42.93
40574;BME280;26283;49.020;8.644;2023-06-14T04:26:27;98848.78;;;23.47;42.99
40574;BME280;26283;49.020;8.644;2023-06-14T04:28:58;98858.47;;;23.44;42.89
40574;BME280;26283;49.020;8.644;2023-06-14T04:31:30;98849.41;;;23.44;42.96
40574;BME280;26283;49.020;8.644;2023-06-14T04:33:59;98860.41;;;23.44;43.00
40574;BME280;26283;49.020;8.644;2023-06-14T04:36:24;98862.62;;;23.42;43.10
40574;BME280;26283;49.020;8.644;2023-06-14T04:38:50;98862.12;;;23.40;43.21
40574;BME280;26283;49.020;8.644;2023-06-14T04:41:21;98860.50;;;23.39;43.27
40574;BME280;26283;49.020;8.644;2023-06-14T04:43:48;98867.16;;;23.38;43.32
40574;BME280;26283;49.020;8.644;2023-06-14T04:46:14;98871.03;;;23.37;43.39
40574;BME280;26283;49.020;8.644;2023-06-14T04:48:40;98871.03;;;23.37;43.37
40574;BME280;26283;49.020;8.644;2023-06-14T04:51:08;98876.03;;;23.35;43.23
40574;BME280;26283;49.020;8.644;2023-06-14T04:53:34;98879.91;;;23.34;43.25
40574;BME280;26283;49.020;8.644;2023-06-14T04:55:59;98885.41;;;23.34;43.35
40574;BME280;26283;49.020;8.644;2023-06-14T04:58:26;98880.53;;;23.31;43.37
40574;BME280;26283;49.020;8.644;2023-06-14T05:00:52;98887.16;;;23.30;43.36
40574;BME280;26283;49.020;8.644;2023-06-14T05:03:18;98891.84;;;23.29;43.38
40574;BME280;26283;49.020;8.644;2023-06-14T05:05:46;98890.22;;;23.28;43.49
40574;BME280;26283;49.020;8.644;2023-06-14T05:08:11;98895.69;;;23.28;43.50
40574;BME280;26283;49.020;8.644;2023-06-14T05:10:37;98893.56;;;23.25;43.56
40574;BME280;26283;49.020;8.644;2023-06-14T05:13:02;98897.13;;;23.25;43.57
40574;BME280;26283;49.020;8.644;2023-06-14T05:15:28;98894.69;;;23.24;43.64
40574;BME280;26283;49.020;8.644;2023-06-14T05:17:54;98895.81;;;23.23;43.69
40574;BME280;26283;49.020;8.644;2023-06-14T05:20:24;98895.00;;;23.22;43.77
40574;BME280;26283;49.020;8.644;2023-06-14T05:22:51;98900.81;;;23.21;44.08
40574;BME280;26283;49.020;8.644;2023-06-14T05:25:17;98902.75;;;23.20;44.07
40574;BME280;26283;49.020;8.644;2023-06-14T05:27:43;98903.87;;;23.19;44.15
40574;BME280;26283;49.020;8.644;2023-06-14T05:30:08;98914.03;;;23.19;44.15
40574;BME280;26283;49.020;8.644;2023-06-14T05:32:34;98906.09;;;23.17;44.21
40574;BME280;26283;49.020;8.644;2023-06-14T05:34:59;98903.69;;;23.16;44.30
40574;BME280;26283;49.020;8.644;2023-06-14T05:37:25;98906.75;;;23.14;44.31
40574;BME280;26283;49.020;8.644;2023-06-14T05:39:50;98909.50;;;23.14;44.33
40574;BME280;26283;49.020;8.644;2023-06-14T05:42:16;98920.81;;;23.13;44.35
40574;BME280;26283;49.020;8.644;2023-06-14T05:44:41;98920.81;;;23.13;44.44
40574;BME280;26283;49.020;8.644;2023-06-14T05:47:06;98923.03;;;23.11;44.47
40574;BME280;26283;49.020;8.644;2023-06-14T05:49:32;98927.72;;;23.10;44.41
40574;BME280;26283;49.020;8.644;2023-06-14T05:51:57;98922.53;;;23.09;44.35
40574;BME280;26283;49.020;8.644;2023-06-14T05:54:22;98922.53;;;23.09;44.42
40574;BME280;26283;49.020;8.644;2023-06-14T05:56:48;98920.09;;;23.07;44.40
40574;BME280;26283;49.020;8.644;2023-06-14T05:59:13;98917.34;;;23.07;44.47
40574;BME280;26283;49.020;8.644;2023-06-14T06:01:38;98930.59;;;23.05;44.47
40574;BME280;26283;49.020;8.644;2023-06-14T06:04:05;98928.66;;;23.06;44.53
40574;BME280;26283;49.020;8.644;2023-06-14T06:06:31;98932.81;;;23.03;44.58
40574;BME280;26283;49.020;8.644;2023-06-14T06:08:57;98938.31;;;23.03;44.54
40574;BME280;26283;49.020;8.644;2023-06-14T06:11:23;98932.00;;;23.03;44.45
40574;BME280;26283;49.020;8.644;2023-06-14T06:13:48;98929.56;;;23.01;44.53
40574;BME280;26283;49.020;8.644;2023-06-14T06:16:14;98936.69;;;23.02;44.57
40574;BME280;26283;49.020;8.644;2023-06-14T06:18:40;98928.75;;;23.01;44.50
40574;BME280;26283;49.020;8.644;2023-06-14T06:21:05;98932.31;;;23.01;44.60
40574;BME280;26283;49.020;8.644;2023-06-14T06:23:31;98936.50;;;22.99;44.56
40574;BME280;26283;49.020;8.644;2023-06-14T06:25:56;98943.09;;;22.98;44.62
40574;BME280;26283;49.020;8.644;2023-06-14T06:28:22;98944.22;;;22.97;44.72
40574;BME280;26283;49.020;8.644;2023-06-14T06:30:47;98948.91;;;22.96;44.81
40574;BME280;26283;49.020;8.644;2023-06-14T06:33:12;98956.34;;;22.96;44.79
40574;BME280;26283;49.020;8.644;2023-06-14T06:35:39;98947.28;;;22.95;44.84
40574;BME280;26283;49.020;8.644;2023-06-14T06:38:04;98945.69;;;22.94;44.96
40574;BME280;26283;49.020;8.644;2023-06-14T06:40:30;98945.69;;;22.94;45.14
40574;BME280;26283;49.020;8.644;2023-06-14T06:42:55;98950.34;;;22.94;45.07
40574;BME280;26283;49.020;8.644;2023-06-14T06:45:21;98948.72;;;22.93;45.06
40574;BME280;26283;49.020;8.644;2023-06-14T06:47:48;98953.41;;;22.92;45.06
40574;BME280;26283;49.020;8.644;2023-06-14T06:50:14;98952.59;;;22.92;45.18
40574;BME280;26283;49.020;8.644;2023-06-14T06:52:39;98974.59;;;22.92;46.63
40574;BME280;26283;49.020;8.644;2023-06-14T06:55:05;98979.13;;;22.96;46.51
40574;BME280;26283;49.020;8.644;2023-06-14T06:57:30;98982.09;;;23.00;46.57
40574;BME280;26283;49.020;8.644;2023-06-14T06:59:57;98992.25;;;22.99;46.71
40574;BME280;26283;49.020;8.644;2023-06-14T07:02:22;98985.13;;;22.98;46.90
40574;BME280;26283;49.020;8.644;2023-06-14T07:04:48;98987.37;;;22.96;47.03
40574;BME280;26283;49.020;8.644;2023-06-14T07:07:13;98992.88;;;22.96;47.12
40574;BME280;26283;49.020;8.644;2023-06-14T07:09:39;98997.56;;;22.96;47.25
40574;BME280;26283;49.020;8.644;2023-06-14T07:12:06;98999.50;;;22.95;47.33
40574;BME280;26283;49.020;8.644;2023-06-14T07:14:31;99002.22;;;22.95;47.47
40574;BME280;26283;49.020;8.644;2023-06-14T07:16:57;99001.75;;;22.93;47.62
40574;BME280;26283;49.020;8.644;2023-06-14T07:19:22;99000.63;;;22.94;47.60
40574;BME280;26283;49.020;8.644;2023-06-14T07:21:48;99002.87;;;22.92;47.71
40574;BME280;26283;49.020;8.644;2023-06-14T07:24:21;99008.38;;;22.92;47.80
40574;BME280;26283;49.020;8.644;2023-06-14T07:26:49;99006.44;;;22.93;47.97
40574;BME280;26283;49.020;8.644;2023-06-14T07:29:15;99013.88;;;22.92;47.98
40574;BME280;26283;49.020;8.644;2023-06-14T07:31:41;99014.69;;;22.93;47.99
40574;BME280;26283;49.020;8.644;2023-06-14T07:34:07;99018.25;;;22.93;48.08
40574;BME280;26283;49.020;8.644;2023-06-14T07:36:32;99022.62;;;22.94;48.24
40574;BME280;26283;49.020;8.644;2023-06-14T07:38:57;99019.88;;;22.94;48.16
40574;BME280;26283;49.020;8.644;2023-06-14T07:41:23;99021.81;;;22.94;48.04
40574;BME280;26283;49.020;8.644;2023-06-14T07:43:49;99019.06;;;22.94;47.99
40574;BME280;26283;49.020;8.644;2023-06-14T07:46:14;99025.37;;;22.94;47.95
40574;BME280;26283;49.020;8.644;2023-06-14T07:48:40;99017.13;;;22.94;47.95
40574;BME280;26283;49.020;8.644;2023-06-14T07:51:05;99022.62;;;22.94;47.96
40574;BME280;26283;49.020;8.644;2023-06-14T07:53:31;99024.22;;;22.95;47.95
40574;BME280;26283;49.020;8.644;2023-06-14T07:55:57;99018.41;;;22.97;47.99
40574;BME280;26283;49.020;8.644;2023-06-14T07:58:22;99023.63;;;22.98;48.04
40574;BME280;26283;49.020;8.644;2023-06-14T08:00:47;99019.22;;;22.97;48.09
40574;BME280;26283;49.020;8.644;2023-06-14T08:03:13;99015.88;;;23.00;48.13
40574;BME280;26283;49.020;8.644;2023-06-14T08:05:38;99021.06;;;23.02;48.16
40574;BME280;26283;49.020;8.644;2023-06-14T08:08:03;99026.25;;;23.03;48.21
40574;BME280;26283;49.020;8.644;2023-06-14T08:10:29;99024.03;;;23.05;48.27
40574;BME280;26283;49.020;8.644;2023-06-14T08:12:54;99020.16;;;23.06;48.36
40574;BME280;26283;49.020;8.644;2023-06-14T08:15:20;99023.41;;;23.08;48.40
40574;BME280;26283;49.020;8.644;2023-06-14T08:17:45;99018.72;;;23.09;48.43
40574;BME280;26283;49.020;8.644;2023-06-14T08:20:12;99022.81;;;23.11;48.47
40574;BME280;26283;49.020;8.644;2023-06-14T08:22:37;99023.31;;;23.13;48.46
40574;BME280;26283;49.020;8.644;2023-06-14T08:25:03;99032.87;;;23.16;48.49
40574;BME280;26283;49.020;8.644;2023-06-14T08:27:29;99026.25;;;23.17;48.54
40574;BME280;26283;49.020;8.644;2023-06-14T08:29:55;99026.75;;;23.19;48.35
40574;BME280;26283;49.020;8.644;2023-06-14T08:32:21;99022.56;;;23.21;47.98
40574;BME280;26283;49.020;8.644;2023-06-14T08:34:46;99023.09;;;23.23;47.68
40574;BME280;26283;49.020;8.644;2023-06-14T08:37:12;99031.84;;;23.25;46.83
40574;BME280;26283;49.020;8.644;2023-06-14T08:39:37;99032.34;;;23.28;46.18
40574;BME280;26283;49.020;8.644;2023-06-14T08:42:03;99034.50;;;23.31;45.73
40574;BME280;26283;49.020;8.644;2023-06-14T08:44:29;99033.87;;;23.34;45.33
40574;BME280;26283;49.020;8.644;2023-06-14T08:46:59;99031.00;;;23.39;44.96
40574;BME280;26283;49.020;8.644;2023-06-14T08:49:25;99032.31;;;23.41;45.01
40574;BME280;26283;49.020;8.644;2023-06-14T08:51:57;99028.13;;;23.44;44.83
40574;BME280;26283;49.020;8.644;2023-06-14T08:54:25;99035.78;;;23.47;44.60
40574;BME280;26283;49.020;8.644;2023-06-14T08:56:53;99030.78;;;23.49;44.27
40574;BME280;26283;49.020;8.644;2023-06-14T08:59:26;99032.94;;;23.52;43.83
40574;BME280;26283;49.020;8.644;2023-06-14T09:01:54;99038.34;;;23.57;43.54
40574;BME280;26283;49.020;8.644;2023-06-14T09:04:25;99035.47;;;23.62;43.55
40574;BME280;26283;49.020;8.644;2023-06-14T09:06:54;99035.97;;;23.64;43.12
40574;BME280;26283;49.020;8.644;2023-06-14T09:09:21;99038.59;;;23.69;42.67
40574;BME280;26283;49.020;8.644;2023-06-14T09:11:49;99031.38;;;23.73;42.52
40574;BME280;26283;49.020;8.644;2023-06-14T09:14:15;99025.25;;;23.76;42.63
40574;BME280;26283;49.020;8.644;2023-06-14T09:16:40;99030.94;;;23.80;42.33
40574;BME280;26283;49.020;8.644;2023-06-14T09:19:06;99031.09;;;23.83;42.39
40574;BME280;26283;49.020;8.644;2023-06-14T09:21:34;99032.13;;;23.87;42.24
40574;BME280;26283;49.020;8.644;2023-06-14T09:24:01;99023.25;;;23.90;42.92
40574;BME280;26283;49.020;8.644;2023-06-14T09:26:27;99026.50;;;23.92;43.33
40574;BME280;26283;49.020;8.644;2023-06-14T11:09:49;99023.06;;;23.87;46.64
40574;BME280;26283;49.020;8.644;2023-06-14T11:12:17;99023.06;;;23.87;46.64
40574;BME280;26283;49.020;8.644;2023-06-14T11:14:46;99036.72;;;23.56;47.50
40574;BME280;26283;49.020;8.644;2023-06-14T11:17:12;99025.34;;;23.71;47.38
40574;BME280;26283;49.020;8.644;2023-06-14T11:19:38;99025.00;;;23.86;47.14
40574;BME280;26283;49.020;8.644;2023-06-14T11:22:04;99019.13;;;24.02;46.89
40574;BME280;26283;49.020;8.644;2023-06-14T11:24:29;99020.50;;;24.13;46.63
40574;BME280;26283;49.020;8.644;2023-06-14T11:26:55;99023.50;;;24.25;46.36
40574;BME280;26283;49.020;8.644;2023-06-14T11:29:21;99020.50;;;24.35;46.07
40574;BME280;26283;49.020;8.644;2023-06-14T11:31:47;99017.00;;;24.43;45.81
40574;BME280;26283;49.020;8.644;2023-06-14T11:34:12;99027.22;;;24.51;45.60
40574;BME280;26283;49.020;8.644;2023-06-14T11:36:39;99022.09;;;24.58;45.42
40574;BME280;26283;49.020;8.644;2023-06-14T11:39:06;99023.59;;;24.65;45.26
40574;BME280;26283;49.020;8.644;2023-06-14T11:41:38;99036.06;;;24.71;45.12
40574;BME280;26283;49.020;8.644;2023-06-14T11:44:04;99026.88;;;24.75;44.99
40574;BME280;26283;49.020;8.644;2023-06-14T11:46:30;99017.97;;;24.78;44.92
40574;BME280;26283;49.020;8.644;2023-06-14T11:48:56;99027.22;;;24.82;44.82
40574;BME280;26283;49.020;8.644;2023-06-14T11:51:21;99014.75;;;24.85;44.73
40574;BME280;26283;49.020;8.644;2023-06-14T11:53:47;99013.00;;;24.89;44.66
40574;BME280;26283;49.020;8.644;2023-06-14T11:56:13;99008.75;;;24.91;44.61
40574;BME280;26283;49.020;8.644;2023-06-14T11:58:39;99004.56;;;24.94;44.53
40574;BME280;26283;49.020;8.644;2023-06-14T12:01:05;99008.66;;;24.97;44.47
40574;BME280;26283;49.020;8.644;2023-06-14T12:03:30;99011.59;;;25.00;44.41
40574;BME280;26283;49.020;8.644;2023-06-14T12:06:06;99012.41;;;25.01;44.42
40574;BME280;26283;49.020;8.644;2023-06-14T12:08:36;99009.31;;;25.02;44.39
40574;BME280;26283;49.020;8.644;2023-06-14T12:11:11;99010.94;;;25.03;44.43
40574;BME280;26283;49.020;8.644;2023-06-14T12:13:41;99007.06;;;25.04;44.44
40574;BME280;26283;49.020;8.644;2023-06-14T12:16:08;99007.88;;;25.05;44.36
40574;BME280;26283;49.020;8.644;2023-06-14T12:18:35;99007.56;;;25.06;44.41
40574;BME280;26283;49.020;8.644;2023-06-14T12:21:03;99004.81;;;25.06;44.43
40574;BME280;26283;49.020;8.644;2023-06-14T12:23:43;99002.87;;;25.07;44.41
40574;BME280;26283;49.020;8.644;2023-06-14T12:26:08;99006.44;;;25.07;44.37
40574;BME280;26283;49.020;8.644;2023-06-14T12:28:33;99009.69;;;25.09;44.41
40574;BME280;26283;49.020;8.644;2023-06-14T12:30:59;99015.19;;;25.09;44.41
40574;BME280;26283;49.020;8.644;2023-06-14T12:33:24;99010.97;;;25.12;44.41
40574;BME280;26283;49.020;8.644;2023-06-14T12:35:53;99014.53;;;25.12;44.42
40574;BME280;26283;49.020;8.644;2023-06-14T12:38:20;99004.31;;;25.13;44.43
40574;BME280;26283;49.020;8.644;2023-06-14T12:40:46;98998.00;;;25.12;44.44
40574;BME280;26283;49.020;8.644;2023-06-14T12:43:12;99005.13;;;25.13;44.41
40574;BME280;26283;49.020;8.644;2023-06-14T12:45:37;99003.19;;;25.14;44.45
40574;BME280;26283;49.020;8.644;2023-06-14T12:48:02;99006.75;;;25.14;44.40
40574;BME280;26283;49.020;8.644;2023-06-14T12:50:28;98998.97;;;25.16;44.39
40574;BME280;26283;49.020;8.644;2023-06-14T12:52:53;99007.75;;;25.18;44.38
40574;BME280;26283;49.020;8.644;2023-06-14T12:55:19;99012.13;;;25.19;44.36
40574;BME280;26283;49.020;8.644;2023-06-14T12:57:44;98999.16;;;25.20;44.34
40574;BME280;26283;49.020;8.644;2023-06-14T13:00:10;99007.09;;;25.21;44.31
40574;BME280;26283;49.020;8.644;2023-06-14T13:02:37;99004.84;;;25.23;44.29
40574;BME280;26283;49.020;8.644;2023-06-14T13:05:03;99002.09;;;25.23;44.27
40574;BME280;26283;49.020;8.644;2023-06-14T13:07:29;99007.28;;;25.25;44.22
40574;BME280;26283;49.020;8.644;2023-06-14T13:09:55;99009.72;;;25.26;44.21
40574;BME280;26283;49.020;8.644;2023-06-14T13:12:20;99017.34;;;25.30;44.19
40574;BME280;26283;49.020;8.644;2023-06-14T13:14:45;99020.09;;;25.30;44.18
40574;BME280;26283;49.020;8.644;2023-06-14T13:17:11;99015.72;;;25.28;44.17
40574;BME280;26283;49.020;8.644;2023-06-14T13:19:37;99021.75;;;25.31;44.17
40574;BME280;26283;49.020;8.644;2023-06-14T13:22:02;99017.84;;;25.32;44.20
40574;BME280;26283;49.020;8.644;2023-06-14T13:24:28;99014.28;;;25.31;44.24
40574;BME280;26283;49.020;8.644;2023-06-14T13:26:55;99018.66;;;25.32;44.25
40574;BME280;26283;49.020;8.644;2023-06-14T13:29:20;99013.13;;;25.32;44.22
40574;BME280;26283;49.020;8.644;2023-06-14T13:31:46;99016.72;;;25.33;44.24
40574;BME280;26283;49.020;8.644;2023-06-14T13:34:11;99013.97;;;25.33;44.24
40574;BME280;26283;49.020;8.644;2023-06-14T13:36:36;99009.25;;;25.33;44.25
40574;BME280;26283;49.020;8.644;2023-06-14T13:39:02;99011.66;;;25.35;44.26
40574;BME280;26283;49.020;8.644;2023-06-14T13:41:28;99010.84;;;25.34;44.28
40574;BME280;26283;49.020;8.644;2023-06-14T13:43:59;99017.19;;;25.35;44.30
40574;BME280;26283;49.020;8.644;2023-06-14T13:46:25;99007.28;;;25.34;44.29
40574;BME280;26283;49.020;8.644;2023-06-14T13:48:50;99009.72;;;25.35;44.32
40574;BME280;26283;49.020;8.644;2023-06-14T13:51:17;99006.62;;;25.37;44.33
40574;BME280;26283;49.020;8.644;2023-06-14T13:53:46;99008.59;;;25.36;44.35
40574;BME280;26283;49.020;8.644;2023-06-14T13:56:12;99006.62;;;25.37;44.35
40574;BME280;26283;49.020;8.644;2023-06-14T13:58:38;99000.00;;;25.38;44.37
40574;BME280;26283;49.020;8.644;2023-06-14T14:01:03;98996.72;;;25.36;44.40
40574;BME280;26283;49.020;8.644;2023-06-14T14:03:29;99007.12;;;25.39;44.39
40574;BME280;26283;49.020;8.644;2023-06-14T14:05:54;99006.31;;;25.38;44.40
40574;BME280;26283;49.020;8.644;2023-06-14T14:08:19;98998.84;;;25.39;44.41
40574;BME280;26283;49.020;8.644;2023-06-14T14:10:45;98991.38;;;25.39;44.42
40574;BME280;26283;49.020;8.644;2023-06-14T14:13:11;98999.34;;;25.41;44.40
40574;BME280;26283;49.020;8.644;2023-06-14T14:15:37;98993.00;;;25.40;44.37
40574;BME280;26283;49.020;8.644;2023-06-14T14:18:03;99001.78;;;25.42;44.45
40574;BME280;26283;49.020;8.644;2023-06-14T14:20:30;98999.03;;;25.42;44.46
40574;BME280;26283;49.020;8.644;2023-06-14T14:22:56;99004.22;;;25.44;44.45
40574;BME280;26283;49.020;8.644;2023-06-14T14:25:21;99004.22;;;25.44;44.47
40574;BME280;26283;49.020;8.644;2023-06-14T14:27:47;98995.13;;;25.43;44.51
40574;BME280;26283;49.020;8.644;2023-06-14T14:30:13;98991.56;;;25.43;44.52
40574;BME280;26283;49.020;8.644;2023-06-14T14:32:42;98997.56;;;25.45;44.55
40574;BME280;26283;49.020;8.644;2023-06-14T14:35:09;99002.28;;;25.44;44.58
40574;BME280;26283;49.020;8.644;2023-06-14T14:37:35;98997.56;;;25.45;44.60
40574;BME280;26283;49.020;8.644;2023-06-14T14:40:00;98997.56;;;25.45;44.60